Paya Lebar, Singapore
Current Conditions -  °F | °C
As of 3:00 PM on Friday 19 Dec 2014 (Local Time) from WSAP Reporting Station
Moderate Rain Moderate Rain  
Wind Chill: 77°   Ceiling: 15000
Heat Index: 78°   Visibility: 2.8mi
Dew Point: 77°   Wind: 6mph
Humidity: 100%   Direction: 350°N
Pressure: 29.85"   Gusts: NA
Location:  1.36°N, 103.91°E
Report Text: WSAP 190700Z 35005KT 4500 RAFEW010 OVC150 25/25 Q1011
Loading
Personal Weather Stations






























Interactive Weather Map New forecast layout! Learn more

10-Day Weather Forecast

Advertisements
Track Severe Weather on mobile